sensor_id;sensor_type;location;lat;lon;timestamp;pressure;altitude;pressure_sealevel;temperature;humidity
11053;BME280;55230;42.602;23.470;2023-05-20T00:00:29;93850.94;;;11.69;100.00
11053;BME280;55230;42.602;23.470;2023-05-20T00:02:56;93853.03;;;11.65;100.00
11053;BME280;55230;42.602;23.470;2023-05-20T00:05:24;93853.03;;;11.65;100.00
11053;BME280;55230;42.602;23.470;2023-05-20T00:07:51;93845.47;;;11.60;100.00
11053;BME280;55230;42.602;23.470;2023-05-20T00:10:18;93846.38;;;11.57;100.00
11053;BME280;55230;42.602;23.470;2023-05-20T00:12:44;93848.75;;;11.55;100.00
11053;BME280;55230;42.602;23.470;2023-05-20T00:15:11;93847.25;;;11.54;100.00
11053;BME280;55230;42.602;23.470;2023-05-20T00:17:39;93856.84;;;11.55;100.00
11053;BME280;55230;42.602;23.470;2023-05-20T00:20:06;93850.81;;;11.51;100.00
11053;BME280;55230;42.602;23.470;2023-05-20T00:22:33;93852.44;;;11.39;100.00
11053;BME280;55230;42.602;23.470;2023-05-20T00:25:00;93852.81;;;11.29;100.00
11053;BME280;55230;42.602;23.470;2023-05-20T00:27:26;93848.81;;;11.33;100.00
11053;BME280;55230;42.602;23.470;2023-05-20T00:29:53;93849.25;;;11.32;100.00
11053;BME280;55230;42.602;23.470;2023-05-20T00:32:19;93849.81;;;11.27;100.00
11053;BME280;55230;42.602;23.470;2023-05-20T00:34:55;93838.53;;;11.19;100.00
11053;BME280;55230;42.602;23.470;2023-05-20T00:37:22;93837.72;;;11.10;100.00
11053;BME280;55230;42.602;23.470;2023-05-20T00:39:49;93834.22;;;11.00;100.00
11053;BME280;55230;42.602;23.470;2023-05-20T00:42:18;93828.31;;;10.93;100.00
11053;BME280;55230;42.602;23.470;2023-05-20T00:44:45;93812.06;;;10.84;100.00
11053;BME280;55230;42.602;23.470;2023-05-20T00:47:11;93806.69;;;10.84;100.00
11053;BME280;55230;42.602;23.470;2023-05-20T00:49:38;93802.47;;;10.83;100.00
11053;BME280;55230;42.602;23.470;2023-05-20T00:52:06;93809.09;;;10.82;100.00
11053;BME280;55230;42.602;23.470;2023-05-20T00:54:33;93809.94;;;10.79;100.00
11053;BME280;55230;42.602;23.470;2023-05-20T00:57:00;93813.72;;;10.81;100.00
11053;BME280;55230;42.602;23.470;2023-05-20T00:59:28;93819.00;;;10.85;100.00
11053;BME280;55230;42.602;23.470;2023-05-20T01:01:54;93817.78;;;10.86;100.00
11053;BME280;55230;42.602;23.470;2023-05-20T01:04:21;93826.00;;;10.82;100.00
11053;BME280;55230;42.602;23.470;2023-05-20T01:06:48;93829.91;;;10.81;100.00
11053;BME280;55230;42.602;23.470;2023-05-20T01:09:16;93835.75;;;10.80;100.00
11053;BME280;55230;42.602;23.470;2023-05-20T01:11:43;93837.03;;;10.75;100.00
11053;BME280;55230;42.602;23.470;2023-05-20T01:14:13;93748.13;;;10.07;100.00
11053;BME280;55230;42.602;23.470;2023-05-20T01:16:41;93841.63;;;10.66;100.00
11053;BME280;55230;42.602;23.470;2023-05-20T01:21:50;93828.50;;;10.55;100.00
11053;BME280;55230;42.602;23.470;2023-05-20T01:24:20;93842.56;;;10.50;100.00
11053;BME280;55230;42.602;23.470;2023-05-20T01:26:47;93834.16;;;10.48;100.00
11053;BME280;55230;42.602;23.470;2023-05-20T01:29:14;93826.63;;;10.43;100.00
11053;BME280;55230;42.602;23.470;2023-05-20T01:31:42;93827.38;;;10.43;100.00
11053;BME280;55230;42.602;23.470;2023-05-20T01:34:10;93814.00;;;10.40;100.00
11053;BME280;55230;42.602;23.470;2023-05-20T01:36:37;93824.16;;;10.36;100.00
11053;BME280;55230;42.602;23.470;2023-05-20T01:39:04;93826.97;;;10.32;100.00
11053;BME280;55230;42.602;23.470;2023-05-20T01:41:33;93836.88;;;10.35;100.00
11053;BME280;55230;42.602;23.470;2023-05-20T01:44:01;93833.66;;;10.40;100.00
11053;BME280;55230;42.602;23.470;2023-05-20T01:46:31;93828.56;;;10.42;100.00
11053;BME280;55230;42.602;23.470;2023-05-20T01:48:58;93826.41;;;10.37;100.00
11053;BME280;55230;42.602;23.470;2023-05-20T01:51:24;93820.59;;;10.39;100.00
11053;BME280;55230;42.602;23.470;2023-05-20T01:53:51;93828.38;;;10.37;100.00
11053;BME280;55230;42.602;23.470;2023-05-20T01:56:17;93826.09;;;10.35;100.00
11053;BME280;55230;42.602;23.470;2023-05-20T01:58:45;93829.22;;;10.34;100.00
11053;BME280;55230;42.602;23.470;2023-05-20T02:01:12;93822.34;;;10.33;100.00
11053;BME280;55230;42.602;23.470;2023-05-20T02:03:38;93826.97;;;10.32;100.00
11053;BME280;55230;42.602;23.470;2023-05-20T02:06:05;93823.41;;;10.35;100.00
11053;BME280;55230;42.602;23.470;2023-05-20T02:08:34;93823.97;;;10.30;100.00
11053;BME280;55230;42.602;23.470;2023-05-20T02:11:00;93819.44;;;10.27;100.00
11053;BME280;55230;42.602;23.470;2023-05-20T02:13:27;93815.56;;;10.28;100.00
11053;BME280;55230;42.602;23.470;2023-05-20T02:15:55;93817.94;;;10.26;100.00
11053;BME280;55230;42.602;23.470;2023-05-20T02:18:22;93818.06;;;10.23;100.00
11053;BME280;55230;42.602;23.470;2023-05-20T02:20:50;93805.88;;;10.18;100.00
11053;BME280;55230;42.602;23.470;2023-05-20T02:23:17;93806.75;;;10.15;100.00
11053;BME280;55230;42.602;23.470;2023-05-20T02:25:44;93812.16;;;10.15;100.00
11053;BME280;55230;42.602;23.470;2023-05-20T02:28:11;93811.38;;;10.15;100.00
11053;BME280;55230;42.602;23.470;2023-05-20T02:30:37;93805.88;;;10.18;100.00
11053;BME280;55230;42.602;23.470;2023-05-20T02:33:06;93807.09;;;10.17;100.00
11053;BME280;55230;42.602;23.470;2023-05-20T02:35:33;93806.66;;;10.19;100.00
11053;BME280;55230;42.602;23.470;2023-05-20T02:38:00;93800.50;;;10.18;100.00
11053;BME280;55230;42.602;23.470;2023-05-20T02:40:27;93797.47;;;10.16;100.00
11053;BME280;55230;42.602;23.470;2023-05-20T02:42:53;93796.31;;;10.17;100.00
11053;BME280;55230;42.602;23.470;2023-05-20T02:45:20;93792.72;;;10.20;100.00
11053;BME280;55230;42.602;23.470;2023-05-20T02:47:49;93806.53;;;10.22;100.00
11053;BME280;55230;42.602;23.470;2023-05-20T02:50:17;93808.66;;;10.27;100.00
11053;BME280;55230;42.602;23.470;2023-05-20T02:52:44;93805.66;;;10.25;100.00
11053;BME280;55230;42.602;23.470;2023-05-20T02:55:11;93797.00;;;10.30;100.00
11053;BME280;55230;42.602;23.470;2023-05-20T02:57:38;93797.00;;;10.30;100.00
11053;BME280;55230;42.602;23.470;2023-05-20T03:00:05;93796.75;;;10.37;100.00
11053;BME280;55230;42.602;23.470;2023-05-20T03:02:32;93804.72;;;10.41;100.00
11053;BME280;55230;42.602;23.470;2023-05-20T03:04:59;93806.41;;;10.47;100.00
11053;BME280;55230;42.602;23.470;2023-05-20T03:07:28;93808.16;;;10.54;100.00
11053;BME280;55230;42.602;23.470;2023-05-20T03:09:54;93813.69;;;10.60;100.00
11053;BME280;55230;42.602;23.470;2023-05-20T03:12:22;93821.13;;;10.68;100.00
11053;BME280;55230;42.602;23.470;2023-05-20T03:14:50;93819.69;;;10.76;100.00
11053;BME280;55230;42.602;23.470;2023-05-20T03:17:19;93820.59;;;10.82;100.00
11053;BME280;55230;42.602;23.470;2023-05-20T03:19:45;93823.25;;;10.95;100.00
11053;BME280;55230;42.602;23.470;2023-05-20T03:22:12;93826.88;;;11.01;100.00
11053;BME280;55230;42.602;23.470;2023-05-20T03:24:40;93828.75;;;11.13;100.00
11053;BME280;55230;42.602;23.470;2023-05-20T03:27:07;93837.19;;;11.24;100.00
11053;BME280;55230;42.602;23.470;2023-05-20T03:29:34;93827.09;;;11.37;100.00
11053;BME280;55230;42.602;23.470;2023-05-20T03:32:00;93831.31;;;11.47;100.00
11053;BME280;55230;42.602;23.470;2023-05-20T03:34:27;93832.28;;;11.62;100.00
11053;BME280;55230;42.602;23.470;2023-05-20T03:36:54;93832.84;;;11.88;100.00
11053;BME280;55230;42.602;23.470;2023-05-20T03:39:21;93836.50;;;12.12;100.00
11053;BME280;55230;42.602;23.470;2023-05-20T03:41:49;93833.56;;;12.64;100.00
11053;BME280;55230;42.602;23.470;2023-05-20T03:44:16;93831.25;;;13.17;100.00
11053;BME280;55230;42.602;23.470;2023-05-20T03:46:43;93845.78;;;13.88;100.00
11053;BME280;55230;42.602;23.470;2023-05-20T03:49:10;93848.13;;;14.37;100.00
11053;BME280;55230;42.602;23.470;2023-05-20T03:51:36;93850.41;;;14.29;98.74
11053;BME280;55230;42.602;23.470;2023-05-20T03:54:03;93855.59;;;14.18;100.00
11053;BME280;55230;42.602;23.470;2023-05-20T03:56:29;93860.56;;;13.87;99.13
11053;BME280;55230;42.602;23.470;2023-05-20T03:58:57;93864.19;;;14.49;98.93
11053;BME280;55230;42.602;23.470;2023-05-20T04:01:24;93874.94;;;15.35;94.02
11053;BME280;55230;42.602;23.470;2023-05-20T04:03:50;93874.00;;;15.23;93.85
11053;BME280;55230;42.602;23.470;2023-05-20T04:06:17;93869.34;;;15.82;91.39
11053;BME280;55230;42.602;23.470;2023-05-20T04:08:44;93873.25;;;15.23;91.52
11053;BME280;55230;42.602;23.470;2023-05-20T04:11:10;93869.81;;;14.60;94.95
11053;BME280;55230;42.602;23.470;2023-05-20T04:13:37;93879.44;;;15.38;91.58
11053;BME280;55230;42.602;23.470;2023-05-20T04:16:05;93871.44;;;15.05;92.26
11053;BME280;55230;42.602;23.470;2023-05-20T04:18:32;93870.44;;;16.04;87.65
11053;BME280;55230;42.602;23.470;2023-05-20T04:21:03;93865.59;;;16.63;84.40
11053;BME280;55230;42.602;23.470;2023-05-20T04:23:29;93869.19;;;17.41;80.55
11053;BME280;55230;42.602;23.470;2023-05-20T04:25:57;93871.19;;;17.66;78.12
11053;BME280;55230;42.602;23.470;2023-05-20T04:28:26;93877.25;;;18.43;72.29
11053;BME280;55230;42.602;23.470;2023-05-20T04:30:58;93874.88;;;19.26;66.89
11053;BME280;55230;42.602;23.470;2023-05-20T04:33:28;93879.66;;;19.36;64.73
11053;BME280;55230;42.602;23.470;2023-05-20T04:35:55;93875.81;;;17.85;73.57
11053;BME280;55230;42.602;23.470;2023-05-20T04:38:22;93873.81;;;17.34;77.22
11053;BME280;55230;42.602;23.470;2023-05-20T04:40:54;93875.53;;;16.66;80.45
11053;BME280;55230;42.602;23.470;2023-05-20T04:43:22;93880.59;;;17.65;75.93
11053;BME280;55230;42.602;23.470;2023-05-20T04:45:49;93879.16;;;17.69;77.43
11053;BME280;55230;42.602;23.470;2023-05-20T04:48:17;93884.03;;;19.06;67.61
11053;BME280;55230;42.602;23.470;2023-05-20T04:50:46;93897.00;;;18.69;67.20
11053;BME280;55230;42.602;23.470;2023-05-20T04:53:12;93891.25;;;19.15;68.15
11053;BME280;55230;42.602;23.470;2023-05-20T04:55:39;93892.13;;;19.48;63.50
11053;BME280;55230;42.602;23.470;2023-05-20T04:58:05;93891.78;;;17.67;71.33
11053;BME280;55230;42.602;23.470;2023-05-20T05:00:33;93881.59;;;18.24;75.19
11053;BME280;55230;42.602;23.470;2023-05-20T05:02:59;93888.16;;;18.85;68.20
11053;BME280;55230;42.602;23.470;2023-05-20T05:05:26;93889.34;;;18.00;73.21
11053;BME280;55230;42.602;23.470;2023-05-20T05:07:54;93874.53;;;16.84;79.43
11053;BME280;55230;42.602;23.470;2023-05-20T05:10:24;93877.28;;;18.12;76.48
11053;BME280;55230;42.602;23.470;2023-05-20T05:12:50;93888.78;;;19.11;70.03
11053;BME280;55230;42.602;23.470;2023-05-20T05:15:17;93895.94;;;20.06;62.37
11053;BME280;55230;42.602;23.470;2023-05-20T05:17:43;93891.94;;;19.69;64.76
11053;BME280;55230;42.602;23.470;2023-05-20T05:20:10;93880.25;;;20.40;59.64
11053;BME280;55230;42.602;23.470;2023-05-20T05:22:38;93884.47;;;21.31;55.72
11053;BME280;55230;42.602;23.470;2023-05-20T05:25:07;93875.22;;;20.66;50.74
11053;BME280;55230;42.602;23.470;2023-05-20T05:27:34;93879.38;;;20.95;50.62
11053;BME280;55230;42.602;23.470;2023-05-20T05:30:01;93867.38;;;21.60;48.53
11053;BME280;55230;42.602;23.470;2023-05-20T05:32:28;93873.13;;;22.27;47.01
11053;BME280;55230;42.602;23.470;2023-05-20T05:34:54;93857.72;;;21.48;48.06
11053;BME280;55230;42.602;23.470;2023-05-20T05:37:21;93863.03;;;22.41;46.43
11053;BME280;55230;42.602;23.470;2023-05-20T05:39:47;93865.34;;;21.20;47.56
11053;BME280;55230;42.602;23.470;2023-05-20T05:42:15;93873.75;;;20.65;51.12
11053;BME280;55230;42.602;23.470;2023-05-20T05:44:42;93870.56;;;18.97;56.54
11053;BME280;55230;42.602;23.470;2023-05-20T05:47:09;93873.66;;;18.68;59.80
11053;BME280;55230;42.602;23.470;2023-05-20T05:49:35;93875.34;;;18.55;64.93
11053;BME280;55230;42.602;23.470;2023-05-20T05:52:02;93871.53;;;19.59;58.78
11053;BME280;55230;42.602;23.470;2023-05-20T05:54:28;93872.03;;;19.90;55.31
11053;BME280;55230;42.602;23.470;2023-05-20T05:56:55;93876.75;;;19.90;57.11
11053;BME280;55230;42.602;23.470;2023-05-20T05:59:23;93864.56;;;20.35;52.81
11053;BME280;55230;42.602;23.470;2023-05-20T06:01:49;93869.06;;;20.32;51.85
11053;BME280;55230;42.602;23.470;2023-05-20T06:04:16;93865.75;;;19.34;62.41
11053;BME280;55230;42.602;23.470;2023-05-20T06:06:43;93858.59;;;20.14;57.09
11053;BME280;55230;42.602;23.470;2023-05-20T06:09:09;93856.59;;;20.15;54.67
11053;BME280;55230;42.602;23.470;2023-05-20T06:11:36;93859.00;;;18.60;70.74
11053;BME280;55230;42.602;23.470;2023-05-20T06:14:02;93861.53;;;17.96;63.06
11053;BME280;55230;42.602;23.470;2023-05-20T06:16:30;93852.03;;;17.60;70.06
11053;BME280;55230;42.602;23.470;2023-05-20T06:18:57;93856.13;;;17.24;76.19
11053;BME280;55230;42.602;23.470;2023-05-20T06:21:24;93716.13;;;16.25;71.36
11053;BME280;55230;42.602;23.470;2023-05-20T06:23:50;93849.91;;;17.18;71.29
11053;BME280;55230;42.602;23.470;2023-05-20T06:26:17;93852.34;;;17.16;87.24
11053;BME280;55230;42.602;23.470;2023-05-20T06:28:43;93849.00;;;17.27;78.56
11053;BME280;55230;42.602;23.470;2023-05-20T06:31:10;93848.56;;;17.60;72.15
11053;BME280;55230;42.602;23.470;2023-05-20T06:33:38;93849.63;;;17.99;70.59
11053;BME280;55230;42.602;23.470;2023-05-20T06:36:05;93856.75;;;18.22;65.40
11053;BME280;55230;42.602;23.470;2023-05-20T06:41:14;93843.56;;;18.57;64.67
11053;BME280;55230;42.602;23.470;2023-05-20T06:43:41;93843.56;;;18.57;66.43
11053;BME280;55230;42.602;23.470;2023-05-20T06:46:08;93838.41;;;18.28;67.02
11053;BME280;55230;42.602;23.470;2023-05-20T06:48:35;93838.53;;;18.98;65.59
11053;BME280;55230;42.602;23.470;2023-05-20T06:51:02;93832.59;;;18.46;61.02
11053;BME280;55230;42.602;23.470;2023-05-20T06:53:29;93845.75;;;19.06;58.26
11053;BME280;55230;42.602;23.470;2023-05-20T06:55:58;93844.91;;;19.65;62.31
11053;BME280;55230;42.602;23.470;2023-05-20T06:58:26;93844.75;;;19.09;55.71
11053;BME280;55230;42.602;23.470;2023-05-20T07:00:53;93847.09;;;19.38;68.25
11053;BME280;55230;42.602;23.470;2023-05-20T07:03:19;93854.13;;;19.78;70.93
11053;BME280;55230;42.602;23.470;2023-05-20T07:05:46;93844.41;;;19.49;63.50
11053;BME280;55230;42.602;23.470;2023-05-20T07:08:13;93839.34;;;19.20;68.43
11053;BME280;55230;42.602;23.470;2023-05-20T07:10:39;93848.91;;;19.86;57.30
11053;BME280;55230;42.602;23.470;2023-05-20T07:13:06;93838.44;;;20.28;51.59
11053;BME280;55230;42.602;23.470;2023-05-20T07:15:37;93829.63;;;20.74;52.92
11053;BME280;55230;42.602;23.470;2023-05-20T07:18:03;93829.16;;;20.59;50.82
11053;BME280;55230;42.602;23.470;2023-05-20T07:20:30;93832.91;;;20.50;54.65
11053;BME280;55230;42.602;23.470;2023-05-20T07:22:57;93827.28;;;21.00;52.81
11053;BME280;55230;42.602;23.470;2023-05-20T07:25:25;93833.66;;;20.45;49.39
11053;BME280;55230;42.602;23.470;2023-05-20T07:27:51;93828.13;;;20.73;50.22
11053;BME280;55230;42.602;23.470;2023-05-20T07:30:18;93826.13;;;20.74;51.18
11053;BME280;55230;42.602;23.470;2023-05-20T07:32:46;93835.94;;;21.15;48.27
11053;BME280;55230;42.602;23.470;2023-05-20T07:35:12;93828.66;;;21.23;48.24
11053;BME280;55230;42.602;23.470;2023-05-20T07:37:39;93836.19;;;20.27;50.11
11053;BME280;55230;42.602;23.470;2023-05-20T07:40:06;93839.94;;;19.74;50.00
11053;BME280;55230;42.602;23.470;2023-05-20T07:42:33;93845.38;;;19.58;51.63
11053;BME280;55230;42.602;23.470;2023-05-20T07:44:59;93834.69;;;20.04;50.81
11053;BME280;55230;42.602;23.470;2023-05-20T07:47:26;93842.41;;;19.55;50.89
11053;BME280;55230;42.602;23.470;2023-05-20T07:49:54;93835.22;;;19.80;55.15
11053;BME280;55230;42.602;23.470;2023-05-20T07:52:20;93830.44;;;19.36;53.57
11053;BME280;55230;42.602;23.470;2023-05-20T07:54:47;93832.97;;;19.79;57.62
11053;BME280;55230;42.602;23.470;2023-05-20T07:57:13;93831.22;;;20.09;57.20
11053;BME280;55230;42.602;23.470;2023-05-20T07:59:43;93838.69;;;19.64;55.20
11053;BME280;55230;42.602;23.470;2023-05-20T08:02:09;93834.44;;;19.35;61.63
11053;BME280;55230;42.602;23.470;2023-05-20T08:04:36;93835.44;;;19.66;58.18
11053;BME280;55230;42.602;23.470;2023-05-20T08:07:04;93826.41;;;19.15;58.15
11053;BME280;55230;42.602;23.470;2023-05-20T08:09:32;93829.94;;;19.32;62.36
11053;BME280;55230;42.602;23.470;2023-05-20T08:11:59;93842.81;;;19.26;59.21
11053;BME280;55230;42.602;23.470;2023-05-20T08:14:26;93837.91;;;19.41;59.57
11053;BME280;55230;42.602;23.470;2023-05-20T08:16:53;93838.19;;;20.10;55.67
11053;BME280;55230;42.602;23.470;2023-05-20T08:19:19;93835.91;;;20.47;57.62
11053;BME280;55230;42.602;23.470;2023-05-20T08:21:46;93830.47;;;20.36;56.31
11053;BME280;55230;42.602;23.470;2023-05-20T08:24:14;93831.69;;;20.40;52.98
11053;BME280;55230;42.602;23.470;2023-05-20T08:26:41;93827.75;;;20.25;53.98
11053;BME280;55230;42.602;23.470;2023-05-20T08:29:07;93825.25;;;20.32;55.97
11053;BME280;55230;42.602;23.470;2023-05-20T08:31:33;93833.47;;;19.83;56.06
11053;BME280;55230;42.602;23.470;2023-05-20T08:34:00;93823.00;;;19.42;57.69
11053;BME280;55230;42.602;23.470;2023-05-20T08:36:26;93821.00;;;19.37;56.46
11053;BME280;55230;42.602;23.470;2023-05-20T08:38:53;93818.47;;;19.28;55.86
11053;BME280;55230;42.602;23.470;2023-05-20T08:41:21;93817.78;;;19.78;58.30
11053;BME280;55230;42.602;23.470;2023-05-20T08:43:49;93816.28;;;20.32;54.95
11053;BME280;55230;42.602;23.470;2023-05-20T08:46:16;93818.97;;;20.48;52.43
11053;BME280;55230;42.602;23.470;2023-05-20T08:48:43;93829.22;;;20.09;55.29
11053;BME280;55230;42.602;23.470;2023-05-20T08:51:10;93816.78;;;20.03;57.66
11053;BME280;55230;42.602;23.470;2023-05-20T08:53:36;93818.28;;;19.43;55.80
11053;BME280;55230;42.602;23.470;2023-05-20T08:56:03;93816.53;;;20.12;60.53
11053;BME280;55230;42.602;23.470;2023-05-20T08:58:31;93817.03;;;20.05;55.83
11053;BME280;55230;42.602;23.470;2023-05-20T09:00:58;93816.06;;;19.58;58.32
11053;BME280;55230;42.602;23.470;2023-05-20T09:03:25;93813.06;;;19.39;58.85
11053;BME280;55230;42.602;23.470;2023-05-20T09:05:51;93808.34;;;19.73;57.83
11053;BME280;55230;42.602;23.470;2023-05-20T09:08:18;93806.09;;;19.72;56.40
11053;BME280;55230;42.602;23.470;2023-05-20T09:10:45;93803.34;;;19.44;58.16
11053;BME280;55230;42.602;23.470;2023-05-20T09:13:11;93808.59;;;19.70;57.16
11053;BME280;55230;42.602;23.470;2023-05-20T09:15:39;93805.34;;;19.54;54.70
11053;BME280;55230;42.602;23.470;2023-05-20T09:18:06;93802.59;;;19.66;56.60
11053;BME280;55230;42.602;23.470;2023-05-20T09:20:34;93804.09;;;19.55;55.48
11053;BME280;55230;42.602;23.470;2023-05-20T09:23:01;93790.66;;;19.80;58.26
11053;BME280;55230;42.602;23.470;2023-05-20T09:25:28;93793.34;;;20.35;56.13
11053;BME280;55230;42.602;23.470;2023-05-20T09:27:55;93785.13;;;20.40;55.44
11053;BME280;55230;42.602;23.470;2023-05-20T09:30:21;93784.34;;;20.56;51.53
11053;BME280;55230;42.602;23.470;2023-05-20T09:32:53;93779.31;;;20.60;51.17
11053;BME280;55230;42.602;23.470;2023-05-20T09:35:20;93782.00;;;20.83;52.21
11053;BME280;55230;42.602;23.470;2023-05-20T09:37:46;93773.88;;;20.55;50.80
11053;BME280;55230;42.602;23.470;2023-05-20T09:40:13;93771.94;;;20.96;50.70
11053;BME280;55230;42.602;23.470;2023-05-20T09:42:43;93769.44;;;21.44;48.57
11053;BME280;55230;42.602;23.470;2023-05-20T09:45:11;93776.78;;;21.25;48.39
11053;BME280;55230;42.602;23.470;2023-05-20T09:47:38;93767.91;;;20.56;49.63
11053;BME280;55230;42.602;23.470;2023-05-20T09:50:07;93769.25;;;20.17;50.28
11053;BME280;55230;42.602;23.470;2023-05-20T09:52:34;93779.19;;;20.09;51.76
11053;BME280;55230;42.602;23.470;2023-05-20T09:55:01;93769.31;;;19.67;51.74
11053;BME280;55230;42.602;23.470;2023-05-20T09:57:29;93764.81;;;19.75;53.78
11053;BME280;55230;42.602;23.470;2023-05-20T09:59:57;93755.06;;;20.18;51.10
11053;BME280;55230;42.602;23.470;2023-05-20T10:02:23;93745.81;;;20.32;50.34
11053;BME280;55230;42.602;23.470;2023-05-20T10:04:50;93748.59;;;20.05;52.22
11053;BME280;55230;42.602;23.470;2023-05-20T10:07:24;93763.50;;;20.09;52.82
11053;BME280;55230;42.602;23.470;2023-05-20T10:09:56;93750.53;;;20.37;50.22
11053;BME280;55230;42.602;23.470;2023-05-20T10:12:26;93745.13;;;20.78;48.66
11053;BME280;55230;42.602;23.470;2023-05-20T10:14:58;93743.09;;;20.84;49.85
11053;BME280;55230;42.602;23.470;2023-05-20T10:17:31;93735.41;;;20.77;49.29
11053;BME280;55230;42.602;23.470;2023-05-20T10:20:01;93722.25;;;20.70;50.78
11053;BME280;55230;42.602;23.470;2023-05-20T10:22:31;93726.44;;;20.03;50.03
11053;BME280;55230;42.602;23.470;2023-05-20T10:24:58;93722.69;;;20.06;48.52
11053;BME280;55230;42.602;23.470;2023-05-20T10:27:25;93724.16;;;20.34;49.33
11053;BME280;55230;42.602;23.470;2023-05-20T10:29:53;93720.53;;;20.61;47.40
11053;BME280;55230;42.602;23.470;2023-05-20T10:32:24;93736.34;;;20.91;46.47
11053;BME280;55230;42.602;23.470;2023-05-20T10:34:51;93728.88;;;20.86;48.40
11053;BME280;55230;42.602;23.470;2023-05-20T10:37:20;93723.50;;;20.69;47.52
11053;BME280;55230;42.602;23.470;2023-05-20T10:39:49;93721.34;;;20.97;46.48
11053;BME280;55230;42.602;23.470;2023-05-20T10:42:16;93714.03;;;21.46;45.05
11053;BME280;55230;42.602;23.470;2023-05-20T10:44:52;93708.81;;;21.42;46.39
11053;BME280;55230;42.602;23.470;2023-05-20T10:47:19;93708.63;;;21.05;47.25
11053;BME280;55230;42.602;23.470;2023-05-20T10:49:45;93709.25;;;20.76;48.37
11053;BME280;55230;42.602;23.470;2023-05-20T10:52:12;93705.38;;;20.55;48.96
11053;BME280;55230;42.602;23.470;2023-05-20T10:54:42;93708.66;;;20.42;47.86
11053;BME280;55230;42.602;23.470;2023-05-20T10:57:10;93697.94;;;20.50;48.55
11053;BME280;55230;42.602;23.470;2023-05-20T10:59:37;93708.16;;;20.44;50.10
11053;BME280;55230;42.602;23.470;2023-05-20T11:02:04;93705.63;;;20.57;47.79
11053;BME280;55230;42.602;23.470;2023-05-20T11:04:30;93705.16;;;20.99;47.27
11053;BME280;55230;42.602;23.470;2023-05-20T11:06:57;93708.06;;;21.42;45.85
11053;BME280;55230;42.602;23.470;2023-05-20T11:09:24;93713.31;;;21.10;47.74
11053;BME280;55230;42.602;23.470;2023-05-20T11:11:51;93703.16;;;20.94;45.81
11053;BME280;55230;42.602;23.470;2023-05-20T11:14:19;93697.66;;;21.05;46.41
11053;BME280;55230;42.602;23.470;2023-05-20T11:16:49;93693.72;;;21.30;47.41
11053;BME280;55230;42.602;23.470;2023-05-20T11:19:16;93677.16;;;21.41;46.84
11053;BME280;55230;42.602;23.470;2023-05-20T11:21:44;93684.09;;;21.48;47.64
11053;BME280;55230;42.602;23.470;2023-05-20T11:24:10;93681.66;;;21.68;48.01
11053;BME280;55230;42.602;23.470;2023-05-20T11:26:37;93679.84;;;22.01;46.00
11053;BME280;55230;42.602;23.470;2023-05-20T11:29:04;93679.47;;;21.91;45.39
11053;BME280;55230;42.602;23.470;2023-05-20T11:31:32;93676.84;;;21.74;46.37
11053;BME280;55230;42.602;23.470;2023-05-20T11:33:59;93671.72;;;21.65;46.20
11053;BME280;55230;42.602;23.470;2023-05-20T11:36:26;93675.63;;;21.46;46.82
11053;BME280;55230;42.602;23.470;2023-05-20T11:38:55;93660.56;;;21.28;48.16
11053;BME280;55230;42.602;23.470;2023-05-20T11:41:22;93671.75;;;21.30;48.25
11053;BME280;55230;42.602;23.470;2023-05-20T11:43:54;93665.25;;;21.33;47.58
11053;BME280;55230;42.602;23.470;2023-05-20T11:46:20;93665.59;;;21.24;48.13
11053;BME280;55230;42.602;23.470;2023-05-20T11:48:51;93654.16;;;21.50;47.81
11053;BME280;55230;42.602;23.470;2023-05-20T11:51:21;93654.88;;;21.50;47.24
11053;BME280;55230;42.602;23.470;2023-05-20T11:53:47;93650.97;;;21.40;48.10
11053;BME280;55230;42.602;23.470;2023-05-20T11:56:14;93654.47;;;21.11;49.02
11053;BME280;55230;42.602;23.470;2023-05-20T11:58:42;93656.34;;;20.87;50.34
11053;BME280;55230;42.602;23.470;2023-05-20T12:01:09;93654.50;;;20.65;50.95
11053;BME280;55230;42.602;23.470;2023-05-20T12:03:35;93640.47;;;20.33;50.45
11053;BME280;55230;42.602;23.470;2023-05-20T12:06:03;93641.19;;;20.39;50.74
11053;BME280;55230;42.602;23.470;2023-05-20T12:08:30;93639.19;;;20.40;50.74
11053;BME280;55230;42.602;23.470;2023-05-20T12:10:56;93647.88;;;20.44;51.42
11053;BME280;55230;42.602;23.470;2023-05-20T12:13:23;93692.41;;;18.82;55.04
11053;BME280;55230;42.602;23.470;2023-05-20T12:15:49;93692.59;;;18.51;56.38
11053;BME280;55230;42.602;23.470;2023-05-20T12:18:16;93695.41;;;18.14;60.25
11053;BME280;55230;42.602;23.470;2023-05-20T12:20:42;93704.13;;;17.76;64.40
11053;BME280;55230;42.602;23.470;2023-05-20T12:23:10;93701.19;;;17.80;64.97
11053;BME280;55230;42.602;23.470;2023-05-20T12:25:37;93704.69;;;17.86;66.26
11053;BME280;55230;42.602;23.470;2023-05-20T12:28:03;93696.25;;;17.84;67.58
11053;BME280;55230;42.602;23.470;2023-05-20T12:30:31;93711.34;;;17.79;70.94
11053;BME280;55230;42.602;23.470;2023-05-20T12:32:57;93712.53;;;17.73;71.15
11053;BME280;55230;42.602;23.470;2023-05-20T12:35:24;93716.59;;;17.46;73.55
11053;BME280;55230;42.602;23.470;2023-05-20T12:37:52;93711.19;;;17.57;70.93
11053;BME280;55230;42.602;23.470;2023-05-20T12:40:20;93710.47;;;17.57;68.82
11053;BME280;55230;42.602;23.470;2023-05-20T12:42:46;93704.84;;;17.71;67.62
11053;BME280;55230;42.602;23.470;2023-05-20T12:45:13;93695.56;;;17.94;68.16
11053;BME280;55230;42.602;23.470;2023-05-20T12:47:39;93693.44;;;18.20;64.23
11053;BME280;55230;42.602;23.470;2023-05-20T12:50:06;93689.06;;;18.45;61.63
11053;BME280;55230;42.602;23.470;2023-05-20T12:52:33;93688.66;;;18.74;60.24